Time;durP1;ratioP1;P1;durP2;ratioP2;P2;SDS_P1;SDS_P2;PMS_P1;PMS_P2;Temp;Humidity;BMP_temperature;BMP_pressure;BME280_temperature;BME280_humidity;BME280_pressure;Samples;Min_cycle;Max_cycle;Signal;HPM_P1;HPM_P2
2021/12/04 00:01:48;;;;;;;14.77;13.57;;;;;;;;;;5008288;28;93047;-71
2021/12/04 00:04:20;;;;;;;14.65;13.35;;;;;;;;;;5003494;28;94109;-71
2021/12/04 00:06:46;;;;;;;13.97;12.77;;;;;;;;;;5008660;28;96537;-71
2021/12/04 00:09:15;;;;;;;14.65;13.48;;;;;;;;;;5011787;28;93006;-71
2021/12/04 00:11:51;;;;;;;14.55;13.25;;;;;;;;;;5010028;28;92806;-71
2021/12/04 00:14:18;;;;;;;14.45;13.18;;;;;;;;;;5009023;28;94100;-71
2021/12/04 00:16:45;;;;;;;15.10;13.75;;;;;;;;;;5007188;28;94092;-71
2021/12/04 00:19:11;;;;;;;14.27;13.05;;;;;;;;;;4991609;28;94364;-71
2021/12/04 00:21:38;;;;;;;15.13;13.90;;;;;;;;;;5006516;28;93325;-71
2021/12/04 00:24:04;;;;;;;14.40;13.20;;;;;;;;;;5009506;28;93989;-71
2021/12/04 00:26:31;;;;;;;14.60;13.27;;;;;;;;;;5007618;28;94223;-71
2021/12/04 00:28:57;;;;;;;15.05;13.65;;;;;;;;;;5011044;28;92992;-71
2021/12/04 00:31:24;;;;;;;14.68;13.48;;;;;;;;;;5007667;28;94962;-71
2021/12/04 00:33:50;;;;;;;16.27;14.73;;;;;;;;;;5011403;28;94385;-70
2021/12/04 00:36:35;;;;;;;15.32;13.93;;;;;;;;;;5007209;28;94130;-70
2021/12/04 00:50:03;;;;;;;15.18;13.88;;;;;;;;;;5010268;28;92046;-70
2021/12/04 00:52:29;;;;;;;16.95;15.35;;;;;;;;;;5004611;28;93614;-70
2021/12/04 00:54:59;;;;;;;14.30;13.05;;;;;;;;;;5011704;28;93393;-70
2021/12/04 00:57:25;;;;;;;16.60;14.90;;;;;;;;;;5002248;28;94870;-71
2021/12/04 00:59:52;;;;;;;16.52;14.93;;;;;;;;;;4991193;28;94208;-71
2021/12/04 01:02:18;;;;;;;16.92;15.27;;;;;;;;;;4995393;28;92630;-71
2021/12/04 01:04:45;;;;;;;17.52;15.73;;;;;;;;;;4991607;28;92888;-70
2021/12/04 01:07:12;;;;;;;16.67;14.98;;;;;;;;;;4989511;28;94559;-70
2021/12/04 01:09:38;;;;;;;17.92;15.82;;;;;;;;;;5006847;28;92516;-70
2021/12/04 01:12:05;;;;;;;17.00;15.10;;;;;;;;;;5009200;28;93226;-70
2021/12/04 01:14:32;;;;;;;16.80;15.20;;;;;;;;;;5011142;28;93538;-71
2021/12/04 01:16:59;;;;;;;15.52;14.05;;;;;;;;;;5006131;28;92625;-71
2021/12/04 01:19:26;;;;;;;16.25;14.85;;;;;;;;;;5013656;28;94136;-71
2021/12/04 01:21:53;;;;;;;16.20;14.75;;;;;;;;;;5005350;28;96270;-70
2021/12/04 01:24:20;;;;;;;15.85;14.40;;;;;;;;;;5005103;28;95606;-71
2021/12/04 01:26:47;;;;;;;15.30;13.73;;;;;;;;;;5008747;28;94127;-71
2021/12/04 01:29:14;;;;;;;16.65;15.05;;;;;;;;;;5012538;28;93047;-71
2021/12/04 01:31:41;;;;;;;16.90;15.10;;;;;;;;;;4999273;28;93523;-71
2021/12/04 01:34:07;;;;;;;18.75;16.13;;;;;;;;;;4999312;28;93369;-70
2021/12/04 01:36:33;;;;;;;16.40;14.75;;;;;;;;;;5012616;28;93404;-70
2021/12/04 01:39:00;;;;;;;16.17;14.30;;;;;;;;;;5009309;28;93336;-70
2021/12/04 01:41:26;;;;;;;15.43;14.02;;;;;;;;;;5007571;28;94251;-70
2021/12/04 01:43:52;;;;;;;16.40;14.90;;;;;;;;;;5013290;28;93826;-70
2021/12/04 01:46:21;;;;;;;15.10;13.50;;;;;;;;;;5009595;28;97480;-71
2021/12/04 01:48:48;;;;;;;15.43;13.93;;;;;;;;;;5010608;28;92459;-71
2021/12/04 01:51:14;;;;;;;14.98;13.63;;;;;;;;;;5012531;28;93359;-71
2021/12/04 01:53:40;;;;;;;16.80;15.07;;;;;;;;;;5012251;28;96029;-71
2021/12/04 01:56:07;;;;;;;16.25;14.55;;;;;;;;;;5010524;28;92588;-70
2021/12/04 01:58:33;;;;;;;14.95;13.63;;;;;;;;;;5011139;28;93225;-71
2021/12/04 02:00:59;;;;;;;16.85;15.05;;;;;;;;;;5013527;28;93714;-71
2021/12/04 02:03:26;;;;;;;15.48;14.00;;;;;;;;;;5010794;28;93071;-71
2021/12/04 02:05:52;;;;;;;21.92;16.00;;;;;;;;;;5012180;28;94487;-71
2021/12/04 02:08:21;;;;;;;17.48;15.68;;;;;;;;;;5014186;28;94012;-71
2021/12/04 02:10:49;;;;;;;17.02;15.23;;;;;;;;;;5009632;28;95457;-71
2021/12/04 02:13:16;;;;;;;18.88;16.80;;;;;;;;;;5007625;28;93782;-71
2021/12/04 02:15:43;;;;;;;20.38;17.25;;;;;;;;;;5001112;28;92554;-71
2021/12/04 02:18:10;;;;;;;17.63;14.63;;;;;;;;;;5014173;28;94156;-70
2021/12/04 02:20:36;;;;;;;19.35;16.38;;;;;;;;;;5011325;28;94304;-70
2021/12/04 02:23:03;;;;;;;24.73;17.63;;;;;;;;;;5013711;28;93016;-71
2021/12/04 02:25:30;;;;;;;28.42;17.25;;;;;;;;;;5014250;28;93218;-70
2021/12/04 02:27:58;;;;;;;24.48;17.45;;;;;;;;;;5009298;28;91704;-71
2021/12/04 02:30:26;;;;;;;28.00;18.77;;;;;;;;;;4996653;28;93324;-71
2021/12/04 02:32:53;;;;;;;25.83;17.80;;;;;;;;;;4994847;28;94313;-71
2021/12/04 02:35:19;;;;;;;41.90;20.70;;;;;;;;;;5012126;28;94888;-72
2021/12/04 02:37:46;;;;;;;27.50;20.27;;;;;;;;;;5010688;28;96567;-72
2021/12/04 02:40:14;;;;;;;38.25;20.23;;;;;;;;;;5012434;28;94473;-72
2021/12/04 02:42:41;;;;;;;30.98;19.67;;;;;;;;;;4993537;28;92613;-72
2021/12/04 02:45:09;;;;;;;44.53;21.98;;;;;;;;;;5006197;28;92988;-72
2021/12/04 02:47:36;;;;;;;38.20;22.83;;;;;;;;;;5016398;28;94049;-72
2021/12/04 02:50:05;;;;;;;44.42;23.85;;;;;;;;;;4997591;28;92949;-72
2021/12/04 02:52:31;;;;;;;64.05;26.20;;;;;;;;;;4993311;28;93584;-72
2021/12/04 02:54:58;;;;;;;69.53;26.48;;;;;;;;;;5010741;28;93560;-72
2021/12/04 02:57:26;;;;;;;75.63;28.70;;;;;;;;;;5013417;28;94162;-72
2021/12/04 02:59:53;;;;;;;83.25;27.27;;;;;;;;;;5004986;28;96941;-72
2021/12/04 03:02:21;;;;;;;101.53;30.58;;;;;;;;;;5009639;28;92630;-72
2021/12/04 03:04:52;;;;;;;87.90;29.38;;;;;;;;;;5011035;28;94474;-72
2021/12/04 03:07:19;;;;;;;73.50;27.13;;;;;;;;;;5014288;28;94260;-72
2021/12/04 03:09:50;;;;;;;94.95;34.17;;;;;;;;;;5013415;28;93214;-72
2021/12/04 03:12:23;;;;;;;112.68;32.38;;;;;;;;;;5005728;28;94710;-72
2021/12/04 03:14:53;;;;;;;87.35;31.15;;;;;;;;;;5005017;28;92965;-71
2021/12/04 03:17:21;;;;;;;113.90;32.70;;;;;;;;;;4999165;28;93037;-72
2021/12/04 03:19:52;;;;;;;128.88;33.65;;;;;;;;;;4992678;28;94732;-72
2021/12/04 03:22:20;;;;;;;153.52;34.60;;;;;;;;;;4999804;28;92459;-72
2021/12/04 03:24:47;;;;;;;86.32;31.42;;;;;;;;;;5010049;28;94877;-72
2021/12/04 03:27:15;;;;;;;119.05;34.63;;;;;;;;;;5003743;28;94338;-72
2021/12/04 03:29:47;;;;;;;115.13;33.17;;;;;;;;;;5008763;28;93619;-72
2021/12/04 03:32:37;;;;;;;129.30;34.47;;;;;;;;;;5008331;28;94801;-72
2021/12/04 03:35:22;;;;;;;104.70;32.72;;;;;;;;;;4972402;28;92803;-72
2021/12/04 03:40:50;;;;;;;149.10;36.78;;;;;;;;;;5012192;28;94217;-72
2021/12/04 03:43:16;;;;;;;118.75;33.47;;;;;;;;;;5006257;28;91765;-72
2021/12/04 03:45:45;;;;;;;125.43;33.60;;;;;;;;;;5012778;28;93253;-72
2021/12/04 03:48:39;;;;;;;202.73;40.40;;;;;;;;;;5003832;28;94267;-72
2021/12/04 03:51:05;;;;;;;145.73;37.50;;;;;;;;;;5010894;28;95930;-72
2021/12/04 03:53:32;;;;;;;160.43;38.22;;;;;;;;;;5001742;28;96394;-72
2021/12/04 03:55:59;;;;;;;123.85;35.95;;;;;;;;;;5011816;28;92482;-72
2021/12/04 03:58:25;;;;;;;129.90;34.03;;;;;;;;;;4997927;28;94471;-72
2021/12/04 04:00:52;;;;;;;149.63;35.45;;;;;;;;;;4992647;28;94435;-72
2021/12/04 04:03:19;;;;;;;160.75;37.28;;;;;;;;;;4989865;28;92684;-72
2021/12/04 04:05:48;;;;;;;117.53;35.17;;;;;;;;;;5008954;28;93758;-72
2021/12/04 04:08:16;;;;;;;103.97;33.10;;;;;;;;;;5009378;28;92837;-72
2021/12/04 04:10:43;;;;;;;150.02;35.95;;;;;;;;;;5011986;28;92482;-72
2021/12/04 04:13:12;;;;;;;151.98;36.50;;;;;;;;;;4995434;28;93976;-72
2021/12/04 04:15:39;;;;;;;59.33;25.40;;;;;;;;;;4972802;28;96643;-72
2021/12/04 04:18:05;;;;;;;157.65;37.17;;;;;;;;;;4972527;28;96564;-72
2021/12/04 04:20:32;;;;;;;142.32;35.70;;;;;;;;;;5003552;28;94172;-72
2021/12/04 04:22:58;;;;;;;97.32;33.80;;;;;;;;;;5002405;28;93172;-72
2021/12/04 04:25:24;;;;;;;152.27;39.88;;;;;;;;;;5010590;28;93966;-72
2021/12/04 04:27:51;;;;;;;197.85;39.75;;;;;;;;;;5008573;28;94390;-72
2021/12/04 04:30:20;;;;;;;148.30;37.65;;;;;;;;;;5009344;28;93422;-72
2021/12/04 04:32:48;;;;;;;156.27;38.17;;;;;;;;;;5010725;28;94465;-72
2021/12/04 04:35:18;;;;;;;172.07;37.00;;;;;;;;;;5010351;28;93338;-72
2021/12/04 04:57:20;;;;;;;196.65;39.45;;;;;;;;;;4993327;28;95970;-72
2021/12/04 05:15:33;;;;;;;140.90;37.63;;;;;;;;;;5014444;28;94742;-72
2021/12/04 05:20:39;;;;;;;218.23;43.42;;;;;;;;;;5014319;28;92500;-72
2021/12/04 05:23:07;;;;;;;352.30;49.63;;;;;;;;;;5015915;28;93072;-72
2021/12/04 05:25:35;;;;;;;257.60;41.75;;;;;;;;;;5000973;28;93072;-72
2021/12/04 05:28:05;;;;;;;320.20;45.95;;;;;;;;;;5012488;28;92491;-72
2021/12/04 05:30:32;;;;;;;233.07;42.30;;;;;;;;;;5010571;28;93959;-72
2021/12/04 05:32:59;;;;;;;261.60;44.47;;;;;;;;;;5010773;28;96278;-72
2021/12/04 05:35:26;;;;;;;242.18;44.95;;;;;;;;;;5014482;28;96495;-72
2021/12/04 05:37:52;;;;;;;205.23;43.28;;;;;;;;;;5012085;28;93343;-71
2021/12/04 05:40:19;;;;;;;202.10;41.08;;;;;;;;;;4999733;28;93484;-72
2021/12/04 05:42:45;;;;;;;227.70;41.33;;;;;;;;;;5010506;28;93237;-72
2021/12/04 05:45:21;;;;;;;173.85;40.53;;;;;;;;;;5017635;28;94357;-71
2021/12/04 05:47:59;;;;;;;280.13;50.45;;;;;;;;;;5013669;28;96087;-71
2021/12/04 05:55:27;;;;;;;281.05;43.80;;;;;;;;;;5011560;28;94460;-72
2021/12/04 05:57:53;;;;;;;248.23;41.08;;;;;;;;;;5005889;28;96610;-72
2021/12/04 06:00:22;;;;;;;325.40;44.58;;;;;;;;;;5010232;27;92598;-71
2021/12/04 06:02:48;;;;;;;249.45;43.75;;;;;;;;;;4997683;28;92974;-71
2021/12/04 06:05:17;;;;;;;219.18;45.78;;;;;;;;;;5013711;28;93868;-72
2021/12/04 06:07:44;;;;;;;206.85;39.83;;;;;;;;;;5013882;28;92419;-73
2021/12/04 06:10:11;;;;;;;257.73;41.10;;;;;;;;;;5007995;28;94163;-71
2021/12/04 06:12:37;;;;;;;194.77;35.72;;;;;;;;;;4994583;28;93609;-71
2021/12/04 06:15:04;;;;;;;238.52;41.20;;;;;;;;;;4988505;28;94180;-71
2021/12/04 06:17:31;;;;;;;193.60;37.80;;;;;;;;;;4989357;28;94217;-71
2021/12/04 06:22:43;;;;;;;181.15;36.88;;;;;;;;;;5006650;28;95741;-70
2021/12/04 06:25:12;;;;;;;282.63;46.83;;;;;;;;;;5005639;28;93559;-71
2021/12/04 06:27:39;;;;;;;356.77;45.58;;;;;;;;;;5007594;28;94108;-71
2021/12/04 06:30:07;;;;;;;241.48;39.85;;;;;;;;;;5016167;28;94123;-71
2021/12/04 06:32:36;;;;;;;221.20;40.00;;;;;;;;;;5013736;28;92709;-71
2021/12/04 06:35:07;;;;;;;221.73;39.38;;;;;;;;;;5014115;28;94386;-71
2021/12/04 06:37:33;;;;;;;192.60;40.38;;;;;;;;;;5013126;28;94067;-71
2021/12/04 06:40:00;;;;;;;244.43;40.70;;;;;;;;;;5014343;28;91930;-71
2021/12/04 06:42:27;;;;;;;276.17;43.65;;;;;;;;;;5000010;28;93053;-71
2021/12/04 06:44:55;;;;;;;263.92;40.10;;;;;;;;;;4993237;28;94472;-71
2021/12/04 06:47:22;;;;;;;302.17;43.33;;;;;;;;;;4991850;28;94941;-70
2021/12/04 06:49:51;;;;;;;305.13;44.55;;;;;;;;;;4993336;28;95616;-70
2021/12/04 06:52:22;;;;;;;220.57;38.13;;;;;;;;;;4996587;28;95267;-71
2021/12/04 06:54:54;;;;;;;317.60;43.45;;;;;;;;;;4993753;28;94059;-71
2021/12/04 06:57:21;;;;;;;366.50;48.58;;;;;;;;;;4992438;28;94324;-71
2021/12/04 06:59:48;;;;;;;142.95;35.38;;;;;;;;;;4993466;28;92457;-72
2021/12/04 07:02:18;;;;;;;221.93;40.30;;;;;;;;;;4993420;28;93991;-73
2021/12/04 07:04:44;;;;;;;286.02;45.90;;;;;;;;;;4993064;28;91688;-71
2021/12/04 07:07:11;;;;;;;259.38;45.00;;;;;;;;;;4993509;28;92670;-71
2021/12/04 07:09:38;;;;;;;213.63;37.50;;;;;;;;;;4993218;28;94189;-71
2021/12/04 07:12:05;;;;;;;159.60;37.08;;;;;;;;;;4991191;28;96499;-71
2021/12/04 07:14:32;;;;;;;180.20;36.08;;;;;;;;;;4995998;28;92503;-71
2021/12/04 07:17:01;;;;;;;229.80;38.67;;;;;;;;;;4993130;28;95509;-70
2021/12/04 07:19:27;;;;;;;163.30;34.65;;;;;;;;;;4992398;28;92583;-71
2021/12/04 07:21:53;;;;;;;167.88;37.05;;;;;;;;;;4993788;28;93247;-71
2021/12/04 07:24:20;;;;;;;268.58;42.72;;;;;;;;;;4992544;28;94150;-71
2021/12/04 07:26:47;;;;;;;190.65;39.25;;;;;;;;;;5005589;28;92975;-71
2021/12/04 07:29:13;;;;;;;161.82;36.08;;;;;;;;;;5013653;28;94039;-71
2021/12/04 07:31:39;;;;;;;148.23;37.55;;;;;;;;;;5013018;28;94476;-71
2021/12/04 07:34:06;;;;;;;154.23;36.20;;;;;;;;;;5015427;28;92513;-71
2021/12/04 07:36:33;;;;;;;125.90;35.15;;;;;;;;;;5010889;28;96583;-71
2021/12/04 07:38:59;;;;;;;235.63;40.60;;;;;;;;;;5012894;28;92427;-71
2021/12/04 07:41:27;;;;;;;128.93;35.92;;;;;;;;;;5010934;28;94182;-71
2021/12/04 07:43:53;;;;;;;202.43;39.00;;;;;;;;;;5013056;28;92498;-71
2021/12/04 07:46:20;;;;;;;186.20;39.50;;;;;;;;;;5011942;28;92856;-71
2021/12/04 07:48:47;;;;;;;152.93;35.33;;;;;;;;;;5012609;28;93865;-71
2021/12/04 07:51:14;;;;;;;148.60;33.55;;;;;;;;;;5012812;28;94559;-71
2021/12/04 07:53:40;;;;;;;111.63;32.92;;;;;;;;;;5013177;27;91817;-71
2021/12/04 07:56:07;;;;;;;125.82;34.65;;;;;;;;;;5012633;28;93729;-71
2021/12/04 07:58:36;;;;;;;95.90;30.90;;;;;;;;;;5012412;28;92709;-72
2021/12/04 08:01:03;;;;;;;99.45;33.53;;;;;;;;;;4999942;28;95303;-72
2021/12/04 08:03:29;;;;;;;102.57;32.72;;;;;;;;;;4992173;28;93155;-71
2021/12/04 08:05:56;;;;;;;63.15;27.33;;;;;;;;;;4992223;28;92782;-71
2021/12/04 08:08:22;;;;;;;78.20;29.08;;;;;;;;;;4991711;28;94511;-71
2021/12/04 08:10:49;;;;;;;102.28;30.58;;;;;;;;;;4992276;28;93508;-71
2021/12/04 08:13:15;;;;;;;86.32;31.08;;;;;;;;;;4992193;28;92491;-71
2021/12/04 08:15:42;;;;;;;91.75;31.80;;;;;;;;;;4989846;28;92907;-71
2021/12/04 08:18:17;;;;;;;125.10;34.47;;;;;;;;;;4995713;28;92411;-71
2021/12/04 08:20:45;;;;;;;148.98;35.30;;;;;;;;;;4992475;28;93721;-72
2021/12/04 08:23:11;;;;;;;120.15;32.00;;;;;;;;;;4991048;28;93292;-73
2021/12/04 08:25:37;;;;;;;137.23;33.85;;;;;;;;;;4990411;28;94922;-72
2021/12/04 08:28:04;;;;;;;107.45;31.98;;;;;;;;;;4991836;28;94791;-72
2021/12/04 08:30:33;;;;;;;136.50;36.05;;;;;;;;;;4991184;28;93969;-72
2021/12/04 08:33:00;;;;;;;107.03;30.52;;;;;;;;;;4992254;28;93063;-72
2021/12/04 08:35:28;;;;;;;137.57;37.03;;;;;;;;;;4991117;28;93187;-73
2021/12/04 08:37:58;;;;;;;112.13;33.30;;;;;;;;;;4992129;28;94114;-73
2021/12/04 08:40:26;;;;;;;115.25;32.65;;;;;;;;;;4995051;28;92481;-73
2021/12/04 08:42:53;;;;;;;111.57;34.00;;;;;;;;;;4992288;28;92745;-72
2021/12/04 08:45:19;;;;;;;110.20;33.55;;;;;;;;;;4991384;28;93841;-72
2021/12/04 08:47:46;;;;;;;133.77;34.72;;;;;;;;;;4991528;28;94698;-72
2021/12/04 08:50:15;;;;;;;140.13;36.30;;;;;;;;;;4989823;28;96772;-74
2021/12/04 08:52:42;;;;;;;165.40;38.00;;;;;;;;;;4991958;28;92496;-73
2021/12/04 08:55:09;;;;;;;135.25;37.50;;;;;;;;;;4992336;28;94799;-73
2021/12/04 08:57:38;;;;;;;95.80;33.20;;;;;;;;;;4989737;28;93520;-73
2021/12/04 09:00:09;;;;;;;99.93;34.25;;;;;;;;;;4992107;28;92441;-74
2021/12/04 09:02:35;;;;;;;99.53;33.20;;;;;;;;;;4994144;28;93099;-73
2021/12/04 09:05:03;;;;;;;101.72;35.72;;;;;;;;;;4991238;28;92428;-73
2021/12/04 09:07:29;;;;;;;118.25;37.63;;;;;;;;;;4991844;28;93359;-73
2021/12/04 09:09:57;;;;;;;102.82;34.20;;;;;;;;;;4992419;27;92482;-73
2021/12/04 09:12:25;;;;;;;82.03;31.33;;;;;;;;;;4990842;28;92495;-73
2021/12/04 09:14:52;;;;;;;82.80;32.88;;;;;;;;;;4989114;28;95383;-73
2021/12/04 09:17:19;;;;;;;77.32;31.67;;;;;;;;;;4978707;28;93739;-73
2021/12/04 09:19:47;;;;;;;80.57;31.35;;;;;;;;;;4990336;28;94004;-74
2021/12/04 09:22:29;;;;;;;70.07;32.17;;;;;;;;;;4995618;28;93781;-73
2021/12/04 09:25:00;;;;;;;67.25;29.55;;;;;;;;;;4997499;28;92509;-73
2021/12/04 09:27:46;;;;;;;85.25;32.55;;;;;;;;;;4990422;28;93956;-73
2021/12/04 09:33:30;;;;;;;65.88;30.38;;;;;;;;;;4994815;28;91826;-72
2021/12/04 10:00:41;;;;;;;52.83;24.48;;;;;;;;;;4993644;28;93544;-72
2021/12/04 10:03:33;;;;;;;59.35;25.13;;;;;;;;;;4992308;28;92688;-72
2021/12/04 10:06:22;;;;;;;57.35;25.80;;;;;;;;;;4980584;28;94344;-72
2021/12/04 10:19:54;;;;;;;58.92;24.35;;;;;;;;;;5003132;28;93846;-72
2021/12/04 10:22:26;;;;;;;51.47;23.70;;;;;;;;;;4992710;28;93532;-71
2021/12/04 10:33:37;;;;;;;61.08;24.92;;;;;;;;;;4992677;28;93515;-71
2021/12/04 10:36:03;;;;;;;48.13;23.45;;;;;;;;;;5002536;28;96110;-72
2021/12/04 10:38:38;;;;;;;62.45;25.98;;;;;;;;;;4992052;28;94312;-71
2021/12/04 10:41:04;;;;;;;61.95;26.02;;;;;;;;;;5008838;28;93373;-71
2021/12/04 10:43:31;;;;;;;62.40;25.40;;;;;;;;;;4995202;28;95620;-71
2021/12/04 10:46:00;;;;;;;52.97;22.55;;;;;;;;;;4993595;28;92485;-72
2021/12/04 10:48:29;;;;;;;62.63;25.15;;;;;;;;;;4994407;28;94266;-72
2021/12/04 10:53:27;;;;;;;60.95;24.98;;;;;;;;;;4994925;28;91864;-71
2021/12/04 10:58:39;;;;;;;56.83;24.38;;;;;;;;;;4996409;28;93427;-72
2021/12/04 11:01:26;;;;;;;55.78;23.50;;;;;;;;;;5004921;28;95688;-72
2021/12/04 11:20:44;;;;;;;58.85;28.27;;;;;;;;;;5013761;28;93725;-72
2021/12/04 11:23:24;;;;;;;41.88;19.67;;;;;;;;;;5010762;28;92567;-72
2021/12/04 11:35:07;;;;;;;55.65;24.50;;;;;;;;;;4997888;28;94451;-71
2021/12/04 11:37:03;;;;;;;62.83;25.48;;;;;;;;;;5001793;28;93196;-71
2021/12/04 11:45:14;;;;;;;66.55;29.13;;;;;;;;;;4994531;28;92498;-72
2021/12/04 11:47:45;;;;;;;36.63;18.13;;;;;;;;;;4992890;28;93233;-73
2021/12/04 11:50:17;;;;;;;49.65;20.08;;;;;;;;;;4993216;28;94623;-72
2021/12/04 11:52:49;;;;;;;53.67;24.33;;;;;;;;;;4988078;28;94709;-72
2021/12/04 11:55:19;;;;;;;51.88;21.95;;;;;;;;;;4998103;28;96921;-70
2021/12/04 11:57:46;;;;;;;48.60;22.20;;;;;;;;;;4995438;28;92637;-73
2021/12/04 12:00:16;;;;;;;53.25;23.63;;;;;;;;;;4992693;28;94647;-71
2021/12/04 12:02:43;;;;;;;47.35;23.05;;;;;;;;;;4993973;28;94090;-72
2021/12/04 12:05:18;;;;;;;51.95;23.30;;;;;;;;;;4991320;28;92694;-72
2021/12/04 12:07:51;;;;;;;55.70;24.20;;;;;;;;;;4994519;28;94092;-72
2021/12/04 12:10:18;;;;;;;59.60;24.98;;;;;;;;;;4986621;28;92667;-72
2021/12/04 12:12:47;;;;;;;62.90;26.25;;;;;;;;;;4972901;28;93901;-72
2021/12/04 12:15:18;;;;;;;55.83;25.33;;;;;;;;;;4982542;28;93815;-72
2021/12/04 12:17:45;;;;;;;62.53;27.15;;;;;;;;;;4991110;28;92909;-72
2021/12/04 12:20:18;;;;;;;67.50;27.80;;;;;;;;;;4990523;28;94903;-72
2021/12/04 12:22:50;;;;;;;;;;;;;;;;;;4992052;28;96100;-72
2021/12/04 12:33:59;;;;;;;48.10;23.55;;;;;;;;;;4991970;28;93159;-72
2021/12/04 12:36:30;;;;;;;53.78;26.35;;;;;;;;;;4990534;28;93604;-72
2021/12/04 12:39:13;;;;;;;54.35;25.63;;;;;;;;;;4992365;28;91673;-72
2021/12/04 12:41:42;;;;;;;51.70;23.92;;;;;;;;;;4991205;28;92592;-72
2021/12/04 12:44:10;;;;;;;47.85;24.13;;;;;;;;;;4991855;28;94467;-72
2021/12/04 12:46:39;;;;;;;49.83;25.90;;;;;;;;;;4989884;28;94882;-72
2021/12/04 12:49:17;;;;;;;44.15;22.95;;;;;;;;;;4990911;28;95574;-73
2021/12/04 12:51:44;;;;;;;44.20;22.95;;;;;;;;;;4991159;28;93305;-72
2021/12/04 12:54:21;;;;;;;47.25;21.60;;;;;;;;;;4994616;28;92673;-72
2021/12/04 12:56:56;;;;;;;45.03;23.13;;;;;;;;;;4991152;28;93353;-72
2021/12/04 13:13:50;;;;;;;48.00;25.38;;;;;;;;;;4970028;28;96546;-72
2021/12/04 13:16:19;;;;;;;48.70;24.75;;;;;;;;;;4991079;28;92986;-72
2021/12/04 13:18:51;;;;;;;49.75;25.27;;;;;;;;;;4993698;28;94076;-71
2021/12/04 13:21:17;;;;;;;51.30;26.42;;;;;;;;;;4991049;28;92567;-72
2021/12/04 13:23:48;;;;;;;54.40;26.27;;;;;;;;;;4991919;28;94075;-72
2021/12/04 13:26:15;;;;;;;60.75;26.70;;;;;;;;;;4994729;28;94385;-72
2021/12/04 13:28:43;;;;;;;53.40;27.48;;;;;;;;;;4994736;28;92533;-72
2021/12/04 13:31:15;;;;;;;57.47;28.05;;;;;;;;;;4994607;28;93715;-72
2021/12/04 13:33:44;;;;;;;59.85;28.90;;;;;;;;;;4993559;28;94142;-72
2021/12/04 13:36:11;;;;;;;54.70;26.40;;;;;;;;;;4999826;28;92550;-71
2021/12/04 13:38:37;;;;;;;61.60;28.77;;;;;;;;;;4994679;28;96298;-72
2021/12/04 13:41:04;;;;;;;62.88;27.55;;;;;;;;;;5003314;28;93617;-71
2021/12/04 13:43:30;;;;;;;55.88;28.77;;;;;;;;;;5004077;28;93855;-71
2021/12/04 13:45:58;;;;;;;62.25;29.05;;;;;;;;;;4996807;28;93533;-71
2021/12/04 13:48:25;;;;;;;65.10;30.60;;;;;;;;;;4998768;28;93277;-71
2021/12/04 13:50:55;;;;;;;55.78;30.02;;;;;;;;;;5002224;28;94241;-72
2021/12/04 13:53:25;;;;;;;65.25;30.20;;;;;;;;;;4995915;28;94232;-71
2021/12/04 13:55:55;;;;;;;69.60;31.65;;;;;;;;;;4991933;28;92095;-72
2021/12/04 13:58:22;;;;;;;55.17;28.83;;;;;;;;;;4994960;27;93240;-71
2021/12/04 14:00:49;;;;;;;50.22;27.00;;;;;;;;;;4996325;28;94424;-72
2021/12/04 14:03:20;;;;;;;49.33;28.08;;;;;;;;;;4994504;28;94975;-72
2021/12/04 14:05:47;;;;;;;55.53;27.92;;;;;;;;;;4998880;28;94259;-72
2021/12/04 14:08:14;;;;;;;53.00;27.25;;;;;;;;;;5011460;28;93272;-71
2021/12/04 14:10:42;;;;;;;52.63;26.55;;;;;;;;;;4992937;28;94626;-71
2021/12/04 14:13:11;;;;;;;53.13;27.35;;;;;;;;;;5011787;28;93667;-72
2021/12/04 14:15:41;;;;;;;49.80;26.20;;;;;;;;;;5011171;28;92811;-71
2021/12/04 14:18:09;;;;;;;48.25;25.15;;;;;;;;;;4992421;28;93738;-71
2021/12/04 14:20:36;;;;;;;46.20;25.25;;;;;;;;;;4991799;28;93293;-71
2021/12/04 14:23:03;;;;;;;39.13;24.20;;;;;;;;;;5017014;28;92459;-71
2021/12/04 14:25:30;;;;;;;38.03;22.70;;;;;;;;;;4999861;28;94292;-71
2021/12/04 14:27:57;;;;;;;47.33;23.65;;;;;;;;;;5002818;28;96636;-71
2021/12/04 14:30:26;;;;;;;31.77;19.13;;;;;;;;;;4995785;28;97036;-71
2021/12/04 14:32:56;;;;;;;36.53;20.90;;;;;;;;;;5007217;28;94706;-72
2021/12/04 14:35:28;;;;;;;30.00;20.27;;;;;;;;;;4986699;28;93063;-71
2021/12/04 14:37:55;;;;;;;40.15;21.20;;;;;;;;;;4991196;28;92483;-72
2021/12/04 14:40:24;;;;;;;31.77;19.83;;;;;;;;;;5000270;28;93952;-70
2021/12/04 14:42:51;;;;;;;38.88;21.25;;;;;;;;;;4990677;28;92540;-71
2021/12/04 14:45:22;;;;;;;32.00;21.67;;;;;;;;;;4995632;28;93046;-71
2021/12/04 14:47:57;;;;;;;28.80;19.60;;;;;;;;;;4994970;28;92557;-71
2021/12/04 14:50:24;;;;;;;30.92;19.75;;;;;;;;;;5001130;28;93215;-70
2021/12/04 14:52:51;;;;;;;33.13;19.48;;;;;;;;;;4995199;28;96725;-71
2021/12/04 14:55:19;;;;;;;27.40;18.35;;;;;;;;;;4992694;28;93427;-71
2021/12/04 14:57:46;;;;;;;31.60;17.40;;;;;;;;;;4991627;28;93122;-71
2021/12/04 15:00:15;;;;;;;27.10;17.58;;;;;;;;;;4993447;28;94418;-71
2021/12/04 15:03:10;;;;;;;33.85;17.52;;;;;;;;;;4994884;28;93206;-71
2021/12/04 15:05:38;;;;;;;27.40;17.95;;;;;;;;;;5004289;28;94769;-71
2021/12/04 15:08:08;;;;;;;26.85;15.13;;;;;;;;;;4994349;28;94203;-70
2021/12/04 15:10:42;;;;;;;21.13;13.38;;;;;;;;;;4994267;28;94350;-71
2021/12/04 15:13:21;;;;;;;23.10;14.02;;;;;;;;;;5003393;28;93561;-70
2021/12/04 15:15:47;;;;;;;25.65;15.30;;;;;;;;;;5000380;27;92587;-70
2021/12/04 15:18:15;;;;;;;25.75;15.23;;;;;;;;;;5002241;28;96084;-70
2021/12/04 15:20:53;;;;;;;22.83;15.48;;;;;;;;;;5001387;28;94754;-70
2021/12/04 15:23:22;;;;;;;25.15;15.95;;;;;;;;;;4992027;28;92615;-70
2021/12/04 15:25:54;;;;;;;23.73;13.02;;;;;;;;;;5001777;28;93169;-70
2021/12/04 15:28:22;;;;;;;26.40;13.68;;;;;;;;;;4990022;28;96086;-70
2021/12/04 15:30:50;;;;;;;20.80;13.77;;;;;;;;;;5000958;28;92833;-71
2021/12/04 15:33:21;;;;;;;25.85;14.52;;;;;;;;;;4989239;28;93222;-70
2021/12/04 15:35:50;;;;;;;23.90;14.80;;;;;;;;;;4982985;28;92184;-70
2021/12/04 15:38:29;;;;;;;13.93;7.75;;;;;;;;;;4985987;28;93882;-70
2021/12/04 15:46:29;;;;;;;20.20;10.20;;;;;;;;;;4990960;28;95407;-69
2021/12/04 15:52:45;;;;;;;19.33;10.88;;;;;;;;;;5006757;28;92454;-69
2021/12/04 15:54:16;;;;;;;18.88;9.52;;;;;;;;;;5003001;28;94570;-70
2021/12/04 15:56:49;;;;;;;17.40;9.30;;;;;;;;;;4992886;28;94075;-69
2021/12/04 15:59:17;;;;;;;17.65;8.65;;;;;;;;;;4982525;28;93102;-69
2021/12/04 16:01:43;;;;;;;14.10;8.13;;;;;;;;;;4999332;28;92935;-69
2021/12/04 16:04:24;;;;;;;15.75;9.20;;;;;;;;;;4993084;28;94335;-70
2021/12/04 16:06:51;;;;;;;17.35;9.40;;;;;;;;;;4995312;28;94235;-69
2021/12/04 16:09:27;;;;;;;14.27;8.00;;;;;;;;;;4989901;28;97018;-70
2021/12/04 16:12:02;;;;;;;15.82;8.40;;;;;;;;;;4987664;28;92534;-70
2021/12/04 16:14:33;;;;;;;18.65;8.27;;;;;;;;;;4977907;28;93166;-70
2021/12/04 16:17:03;;;;;;;22.30;9.60;;;;;;;;;;4969275;28;93353;-70
2021/12/04 16:19:32;;;;;;;22.95;10.27;;;;;;;;;;4974562;28;93378;-70
2021/12/04 16:22:02;;;;;;;17.70;9.13;;;;;;;;;;4976506;28;93990;-70
2021/12/04 16:24:30;;;;;;;19.95;9.55;;;;;;;;;;4981056;28;92631;-71
2021/12/04 16:27:03;;;;;;;19.85;9.48;;;;;;;;;;4973057;28;93377;-71
2021/12/04 16:29:35;;;;;;;21.38;11.63;;;;;;;;;;4988991;28;95437;-70
2021/12/04 16:39:58;;;;;;;27.15;10.57;;;;;;;;;;4977429;28;93683;-72
2021/12/04 16:42:25;;;;;;;23.00;11.55;;;;;;;;;;4968960;28;93653;-72
2021/12/04 16:45:14;;;;;;;24.65;11.75;;;;;;;;;;4983630;28;94784;-71
2021/12/04 16:47:44;;;;;;;21.92;11.23;;;;;;;;;;4990153;28;94728;-71
2021/12/04 16:50:15;;;;;;;25.63;11.02;;;;;;;;;;4977512;28;94190;-71
2021/12/04 16:55:44;;;;;;;20.55;10.65;;;;;;;;;;4972723;28;93236;-71
2021/12/04 16:58:15;;;;;;;27.27;12.30;;;;;;;;;;4961330;28;93554;-72
2021/12/04 17:00:43;;;;;;;23.60;11.00;;;;;;;;;;4977033;28;96585;-71
2021/12/04 17:03:10;;;;;;;29.58;10.70;;;;;;;;;;4974231;28;94978;-72
2021/12/04 17:05:37;;;;;;;17.27;9.48;;;;;;;;;;4977880;28;92519;-72
2021/12/04 17:08:04;;;;;;;23.42;9.48;;;;;;;;;;4978841;28;93970;-72
2021/12/04 17:10:31;;;;;;;21.30;12.90;;;;;;;;;;4975336;28;93524;-72
2021/12/04 17:12:57;;;;;;;19.98;10.63;;;;;;;;;;4971923;28;93056;-72
2021/12/04 17:15:24;;;;;;;24.88;11.07;;;;;;;;;;4972879;28;93373;-72
2021/12/04 17:17:51;;;;;;;20.60;11.07;;;;;;;;;;4992327;28;93395;-72
2021/12/04 17:20:19;;;;;;;29.80;16.13;;;;;;;;;;4993631;28;94037;-72
2021/12/04 17:22:47;;;;;;;22.35;11.40;;;;;;;;;;4999135;28;94194;-72
2021/12/04 17:25:14;;;;;;;27.95;11.35;;;;;;;;;;4995308;28;95795;-73
2021/12/04 17:27:40;;;;;;;32.42;10.85;;;;;;;;;;4991152;28;96331;-72
2021/12/04 17:30:13;;;;;;;20.52;9.55;;;;;;;;;;4989816;28;93445;-71